createdAt,value
2022-11-28T00:01:39.980Z,11.90
2022-11-28T00:04:08.065Z,11.90
2022-11-28T00:06:45.585Z,11.80
2022-11-28T00:09:14.450Z,11.80
2022-11-28T00:11:44.273Z,11.70
2022-11-28T00:14:12.254Z,11.70
2022-11-28T00:16:39.810Z,11.70
2022-11-28T00:19:07.492Z,11.70
2022-11-28T00:21:35.809Z,11.60
2022-11-28T00:24:03.709Z,11.60
2022-11-28T00:26:34.771Z,11.60
2022-11-28T00:29:04.397Z,11.50
2022-11-28T00:31:35.639Z,11.50
2022-11-28T00:34:04.002Z,11.50
2022-11-28T00:36:31.523Z,11.40
2022-11-28T00:38:59.063Z,11.30
2022-11-28T00:41:29.373Z,11.30
2022-11-28T00:43:57.514Z,11.30
2022-11-28T00:46:25.381Z,11.30
2022-11-28T00:48:53.722Z,11.20
2022-11-28T00:51:24.231Z,11.20
2022-11-28T00:53:53.750Z,11.20
2022-11-28T00:56:24.283Z,11.10
2022-11-28T00:58:52.779Z,11.10
2022-11-28T01:01:33.806Z,11.00
2022-11-28T01:04:02.211Z,11.00
2022-11-28T01:06:32.954Z,11.00
2022-11-28T01:09:03.376Z,10.90
2022-11-28T01:11:31.508Z,10.90
2022-11-28T01:14:01.049Z,10.80
2022-11-28T01:16:29.324Z,10.80
2022-11-28T01:18:57.309Z,10.70
2022-11-28T01:21:25.561Z,10.70
2022-11-28T01:23:53.536Z,10.70
2022-11-28T01:26:24.682Z,10.60
2022-11-28T01:28:52.445Z,10.60
2022-11-28T01:31:23.547Z,10.60
2022-11-28T01:33:51.710Z,10.50
2022-11-28T01:36:20.849Z,10.50
2022-11-28T01:38:48.893Z,10.50
2022-11-28T01:41:19.269Z,10.50
2022-11-28T01:44:19.277Z,10.40
2022-11-28T01:46:46.783Z,10.30
2022-11-28T01:49:31.624Z,10.30
2022-11-28T01:52:04.966Z,10.30
2022-11-28T01:54:35.774Z,10.20
2022-11-28T01:57:13.597Z,10.20
2022-11-28T01:59:47.236Z,10.20
2022-11-28T02:02:21.666Z,10.10
2022-11-28T02:04:50.718Z,10.10
2022-11-28T02:07:19.517Z,10.10
2022-11-28T02:09:47.040Z,10.10
2022-11-28T02:12:28.019Z,10.00
2022-11-28T02:15:04.352Z,10.00
2022-11-28T02:17:48.473Z,10.00
2022-11-28T02:20:28.027Z,9.90
2022-11-28T02:23:20.948Z,9.90
2022-11-28T02:26:12.943Z,9.90
2022-11-28T02:28:45.973Z,9.80
2022-11-28T02:31:51.474Z,9.80
2022-11-28T02:34:27.930Z,9.80
2022-11-28T02:37:08.583Z,9.80
2022-11-28T02:39:55.088Z,9.80
2022-11-28T02:42:42.347Z,9.70
2022-11-28T02:45:12.098Z,9.70
2022-11-28T02:47:53.432Z,9.70
2022-11-28T02:50:42.231Z,9.60
2022-11-28T02:53:14.626Z,9.60
2022-11-28T02:55:44.359Z,9.60
2022-11-28T02:58:12.659Z,9.60
2022-11-28T03:00:43.826Z,9.60
2022-11-28T03:03:48.100Z,9.60
2022-11-28T03:06:32.507Z,9.60
2022-11-28T03:09:24.843Z,9.60
2022-11-28T03:12:24.885Z,9.50
2022-11-28T03:14:57.365Z,9.50
2022-11-28T03:17:39.665Z,9.50
2022-11-28T03:20:22.930Z,9.40
2022-11-28T03:22:56.180Z,9.50
2022-11-28T03:25:41.542Z,9.40
2022-11-28T03:28:12.541Z,9.40
2022-11-28T03:30:48.462Z,9.40
2022-11-28T03:33:17.810Z,9.30
2022-11-28T03:36:01.572Z,9.30
2022-11-28T03:38:36.232Z,9.30
2022-11-28T03:41:10.587Z,9.30
2022-11-28T03:43:44.280Z,9.30
2022-11-28T03:46:15.895Z,9.30
2022-11-28T03:48:47.291Z,9.30
2022-11-28T03:51:17.852Z,9.30
2022-11-28T03:53:51.037Z,9.20
2022-11-28T03:56:26.576Z,9.20
2022-11-28T03:59:02.825Z,9.20
2022-11-28T04:02:00.189Z,9.20
2022-11-28T04:04:55.702Z,9.30
2022-11-28T04:07:32.209Z,9.20
2022-11-28T04:10:03.011Z,9.30
2022-11-28T04:12:50.668Z,9.20
2022-11-28T04:15:22.983Z,9.30
2022-11-28T04:18:27.111Z,9.30
2022-11-28T04:21:10.434Z,9.30
2022-11-28T04:23:40.630Z,9.30
2022-11-28T04:26:14.801Z,9.30
2022-11-28T04:28:44.474Z,9.30
2022-11-28T04:31:12.917Z,9.30
2022-11-28T04:33:44.959Z,9.30
2022-11-28T04:36:13.553Z,9.20
2022-11-28T04:38:42.516Z,9.20
2022-11-28T04:41:20.276Z,9.20
2022-11-28T04:44:08.322Z,9.20
2022-11-28T04:46:44.528Z,9.20
2022-11-28T04:49:12.263Z,9.10
2022-11-28T04:51:49.422Z,9.10
2022-11-28T04:54:50.265Z,9.10
2022-11-28T04:57:24.407Z,9.00
2022-11-28T04:59:52.885Z,9.00
2022-11-28T05:02:21.951Z,9.00
2022-11-28T05:04:49.468Z,8.90
2022-11-28T05:07:17.118Z,8.90
2022-11-28T05:09:44.663Z,8.90
2022-11-28T05:12:12.172Z,8.80
2022-11-28T05:14:40.991Z,8.80
2022-11-28T05:17:08.669Z,8.80
2022-11-28T05:19:36.190Z,8.80
2022-11-28T05:22:03.729Z,8.80
2022-11-28T05:24:32.491Z,8.80
2022-11-28T05:27:00.316Z,8.70
2022-11-28T05:29:27.788Z,8.70
2022-11-28T05:31:55.401Z,8.70
2022-11-28T05:34:23.032Z,8.70
2022-11-28T05:36:50.565Z,8.70
2022-11-28T05:39:18.082Z,8.60
2022-11-28T05:41:45.633Z,8.60
2022-11-28T05:44:13.091Z,8.60
2022-11-28T05:46:40.577Z,8.60
2022-11-28T05:49:08.819Z,8.50
2022-11-28T05:51:36.381Z,8.50
2022-11-28T05:54:03.979Z,8.50
2022-11-28T05:56:31.572Z,8.50
2022-11-28T05:58:59.185Z,8.50
2022-11-28T06:01:28.942Z,8.50
2022-11-28T06:03:59.964Z,8.50
2022-11-28T06:06:32.983Z,8.50
2022-11-28T06:09:01.060Z,8.50
2022-11-28T06:11:30.380Z,8.50
2022-11-28T06:13:57.919Z,8.60
2022-11-28T06:16:29.033Z,8.50
2022-11-28T06:19:02.093Z,8.50
2022-11-28T06:21:30.420Z,8.50
2022-11-28T06:23:59.682Z,8.50
2022-11-28T06:26:28.795Z,8.50
2022-11-28T06:28:56.540Z,8.50
2022-11-28T06:31:28.072Z,8.50
2022-11-28T06:33:56.201Z,8.50
2022-11-28T06:36:24.719Z,8.50
2022-11-28T06:38:53.203Z,8.50
2022-11-28T06:41:22.953Z,8.50
2022-11-28T06:43:50.689Z,8.50
2022-11-28T06:46:20.837Z,8.50
2022-11-28T06:48:50.735Z,8.50
2022-11-28T06:51:19.601Z,8.50
2022-11-28T06:53:47.430Z,8.50
2022-11-28T06:56:18.300Z,8.50
2022-11-28T06:58:46.395Z,8.50
2022-11-28T07:01:17.597Z,8.50
2022-11-28T07:03:46.075Z,8.50
2022-11-28T07:06:15.254Z,8.50
2022-11-28T07:08:43.084Z,8.50
2022-11-28T07:11:19.414Z,8.50
2022-11-28T07:13:48.678Z,8.50
2022-11-28T07:16:24.947Z,8.40
2022-11-28T07:18:53.782Z,8.40
2022-11-28T07:21:21.632Z,8.40
2022-11-28T07:23:49.497Z,8.40
2022-11-28T07:26:18.909Z,8.30
2022-11-28T07:28:46.923Z,8.30
2022-11-28T07:31:21.202Z,8.30
2022-11-28T07:33:50.933Z,8.30
2022-11-28T07:36:21.054Z,8.30
2022-11-28T07:38:56.164Z,8.20
2022-11-28T07:41:26.728Z,8.20
2022-11-28T07:43:56.279Z,8.20
2022-11-28T07:46:24.755Z,8.20
2022-11-28T07:48:52.563Z,8.10
2022-11-28T07:51:26.120Z,8.10
2022-11-28T07:53:54.029Z,8.10
2022-11-28T07:56:24.876Z,8.10
2022-11-28T07:58:52.842Z,8.10
2022-11-28T08:01:22.908Z,8.10
2022-11-28T08:03:52.078Z,8.10
2022-11-28T08:06:21.888Z,8.10
2022-11-28T08:08:50.412Z,8.10
2022-11-28T08:11:20.374Z,8.00
2022-11-28T08:13:48.774Z,8.00
2022-11-28T08:16:19.232Z,8.00
2022-11-28T08:18:48.085Z,8.00
2022-11-28T08:21:24.909Z,8.00
2022-11-28T08:23:54.129Z,8.10
2022-11-28T08:26:27.494Z,8.00
2022-11-28T08:28:59.229Z,8.00
2022-11-28T08:31:29.169Z,8.00
2022-11-28T08:33:59.442Z,8.40
2022-11-28T08:36:29.156Z,8.10
2022-11-28T08:41:46.709Z,8.00
2022-11-28T08:44:14.348Z,8.10
2022-11-28T08:46:41.927Z,8.10
2022-11-28T08:49:09.566Z,8.10
2022-11-28T08:51:37.307Z,8.20
2022-11-28T08:54:04.851Z,8.20
2022-11-28T08:56:32.382Z,8.30
2022-11-28T08:59:00.040Z,8.30
2022-11-28T09:01:28.144Z,8.30
2022-11-28T09:03:56.897Z,8.40
2022-11-28T09:06:24.993Z,8.40
2022-11-28T09:08:53.553Z,8.50
2022-11-28T09:11:23.057Z,8.50
2022-11-28T09:13:51.134Z,8.60
2022-11-28T09:16:19.079Z,8.60
2022-11-28T09:18:46.628Z,8.70
2022-11-28T09:21:15.773Z,8.70
2022-11-28T09:23:45.048Z,8.80
2022-11-28T09:26:17.850Z,8.90
2022-11-28T09:28:45.733Z,8.90
2022-11-28T09:31:15.090Z,9.00
2022-11-28T09:33:43.077Z,9.10
2022-11-28T09:36:14.314Z,9.10
2022-11-28T09:38:42.256Z,9.20
2022-11-28T09:41:37.362Z,9.20
2022-11-28T09:44:33.287Z,9.30
2022-11-28T09:47:06.407Z,9.40
2022-11-28T09:49:45.650Z,9.40
2022-11-28T09:52:30.408Z,9.50
2022-11-28T09:55:11.746Z,9.60
2022-11-28T09:57:42.810Z,9.70
2022-11-28T10:00:23.628Z,9.70
2022-11-28T10:03:00.027Z,9.80
2022-11-28T10:05:39.491Z,10.00
2022-11-28T10:08:12.972Z,10.10
2022-11-28T10:11:09.881Z,10.10
2022-11-28T10:14:06.739Z,10.30
2022-11-28T10:16:41.666Z,10.40
2022-11-28T10:19:31.532Z,10.50
2022-11-28T10:22:05.028Z,10.60
2022-11-28T10:24:44.765Z,10.80
2022-11-28T10:27:15.633Z,10.90
2022-11-28T10:29:53.972Z,11.00
2022-11-28T10:32:31.424Z,11.20
2022-11-28T10:35:04.510Z,11.30
2022-11-28T10:37:36.392Z,11.40
2022-11-28T10:40:24.965Z,11.50
2022-11-28T10:43:19.735Z,11.70
2022-11-28T10:45:59.800Z,11.70
2022-11-28T10:48:40.689Z,11.90
2022-11-28T10:51:17.617Z,12.00
2022-11-28T10:53:57.312Z,12.10
2022-11-28T10:57:04.398Z,12.20
2022-11-28T11:00:12.472Z,12.30
2022-11-28T11:02:46.616Z,12.40
2022-11-28T11:05:32.691Z,12.50
2022-11-28T11:08:16.852Z,12.60
2022-11-28T11:10:52.366Z,12.60
2022-11-28T11:13:28.674Z,12.70
2022-11-28T11:16:07.353Z,12.80
2022-11-28T11:18:46.729Z,12.90
2022-11-28T11:21:15.877Z,13.00
2022-11-28T11:23:45.709Z,13.10
2022-11-28T11:26:31.487Z,13.20
2022-11-28T11:29:00.818Z,13.30
2022-11-28T11:31:38.166Z,13.30
2022-11-28T11:34:14.991Z,13.40
2022-11-28T11:36:43.118Z,13.50
2022-11-28T11:39:11.921Z,13.60
2022-11-28T11:41:42.466Z,13.70
2022-11-28T11:44:15.976Z,13.80
2022-11-28T11:47:03.975Z,13.90
2022-11-28T11:49:42.704Z,13.90
2022-11-28T11:52:27.934Z,14.00
2022-11-28T11:54:58.804Z,14.00
2022-11-28T11:57:35.090Z,14.10
2022-11-28T12:00:15.107Z,14.10
2022-11-28T12:02:52.024Z,14.10
2022-11-28T12:06:12.097Z,14.10
2022-11-28T12:08:35.707Z,14.10
2022-11-28T12:11:26.715Z,14.00
2022-11-28T12:13:55.074Z,14.00
2022-11-28T12:16:49.690Z,14.00
2022-11-28T12:19:55.551Z,14.00
2022-11-28T12:22:38.384Z,14.00
2022-11-28T12:25:13.225Z,14.00
2022-11-28T12:27:52.845Z,14.00
2022-11-28T12:30:33.492Z,14.00
2022-11-28T12:33:04.038Z,14.10
2022-11-28T12:35:43.192Z,14.20
2022-11-28T12:38:16.485Z,14.40
2022-11-28T12:41:32.236Z,14.70
2022-11-28T12:44:16.367Z,14.80
2022-11-28T12:47:08.351Z,14.90
2022-11-28T12:49:43.507Z,15.00
2022-11-28T12:52:34.787Z,15.30
2022-11-28T12:55:17.399Z,15.40
2022-11-28T12:58:07.361Z,15.50
2022-11-28T13:00:50.027Z,15.60
2022-11-28T13:03:37.616Z,15.70
2022-11-28T13:06:41.753Z,15.80
2022-11-28T13:09:27.831Z,15.90
2022-11-28T13:12:07.591Z,16.00
2022-11-28T13:14:57.317Z,15.90
2022-11-28T13:17:53.307Z,15.90
2022-11-28T13:20:32.926Z,15.80
2022-11-28T13:23:14.955Z,15.70
2022-11-28T13:26:00.692Z,15.60
2022-11-28T13:28:58.760Z,15.50
2022-11-28T13:31:38.375Z,15.40
2022-11-28T13:34:14.592Z,15.30
2022-11-28T13:40:19.839Z,15.20
2022-11-28T13:43:06.989Z,15.10
2022-11-28T13:45:39.177Z,15.00
2022-11-28T13:49:13.205Z,14.90
2022-11-28T13:51:30.917Z,14.90
2022-11-28T13:54:18.207Z,14.70
2022-11-28T13:56:47.810Z,14.70
2022-11-28T13:59:19.596Z,14.60
2022-11-28T14:01:55.908Z,14.60
2022-11-28T14:04:24.365Z,14.50
2022-11-28T14:06:58.918Z,14.40
2022-11-28T14:09:44.582Z,14.40
2022-11-28T14:12:44.855Z,14.30
2022-11-28T14:15:32.907Z,14.30
2022-11-28T14:18:57.701Z,14.20
2022-11-28T14:21:44.170Z,14.10
2022-11-28T14:24:23.687Z,14.00
2022-11-28T14:26:59.405Z,13.90
2022-11-28T14:29:38.534Z,13.90
2022-11-28T14:32:30.326Z,13.90
2022-11-28T14:34:55.391Z,13.80
2022-11-28T14:37:29.418Z,13.70
2022-11-28T14:39:57.988Z,13.60
2022-11-28T14:45:38.271Z,13.60
2022-11-28T14:48:33.485Z,13.60
2022-11-28T14:51:02.442Z,13.60
2022-11-28T14:53:34.341Z,13.50
2022-11-28T14:56:23.127Z,13.50
2022-11-28T14:58:55.523Z,13.50
2022-11-28T15:01:50.642Z,13.40
2022-11-28T15:04:46.001Z,13.40
2022-11-28T15:07:28.869Z,13.40
2022-11-28T15:10:07.791Z,13.30
2022-11-28T15:13:07.708Z,13.30
2022-11-28T15:15:35.552Z,13.30
2022-11-28T15:18:04.734Z,13.20
2022-11-28T15:20:38.888Z,13.20
2022-11-28T15:23:21.175Z,13.20
2022-11-28T15:25:54.925Z,13.10
2022-11-28T15:28:28.150Z,13.10
2022-11-28T15:30:59.212Z,13.00
2022-11-28T15:33:27.727Z,13.30
2022-11-28T15:36:04.225Z,12.90
2022-11-28T15:38:32.325Z,12.90
2022-11-28T15:41:00.775Z,12.90
2022-11-28T15:43:31.562Z,12.80
2022-11-28T15:46:02.809Z,12.70
2022-11-28T15:48:40.190Z,12.80
2022-11-28T15:51:21.905Z,12.80
2022-11-28T15:53:49.844Z,12.70
2022-11-28T15:56:17.580Z,12.70
2022-11-28T15:58:47.714Z,12.70
2022-11-28T16:01:19.999Z,12.70
2022-11-28T16:04:14.683Z,12.70
2022-11-28T16:06:44.991Z,12.60
2022-11-28T16:09:18.844Z,12.50
2022-11-28T16:11:53.001Z,12.50
2022-11-28T16:14:31.513Z,12.50
2022-11-28T16:17:01.700Z,12.40
2022-11-28T16:19:32.877Z,12.40
2022-11-28T16:22:03.876Z,12.40
2022-11-28T16:24:38.736Z,12.30
2022-11-28T16:27:06.898Z,12.30
2022-11-28T16:29:36.291Z,12.20
2022-11-28T16:32:26.443Z,12.20
2022-11-28T16:34:55.081Z,12.20
2022-11-28T16:37:27.611Z,12.20
2022-11-28T16:40:01.291Z,12.20
2022-11-28T16:42:29.018Z,12.10
2022-11-28T16:44:57.211Z,12.10
2022-11-28T16:47:30.967Z,12.00
2022-11-28T16:50:16.069Z,12.00
2022-11-28T16:52:51.260Z,11.90
2022-11-28T16:55:34.814Z,11.90
2022-11-28T16:58:11.586Z,11.90
2022-11-28T17:00:43.144Z,11.80
2022-11-28T17:03:40.778Z,11.70
2022-11-28T17:06:28.808Z,11.80
2022-11-28T17:08:57.035Z,11.60
2022-11-28T17:11:28.366Z,11.60
2022-11-28T17:13:57.699Z,11.50
2022-11-28T17:16:27.706Z,11.50
2022-11-28T17:18:55.342Z,11.40
2022-11-28T17:21:32.552Z,11.40
2022-11-28T17:24:03.465Z,11.30
2022-11-28T17:26:31.047Z,11.30
2022-11-28T17:28:59.278Z,11.20
2022-11-28T17:31:26.861Z,11.10
2022-11-28T17:33:54.673Z,11.10
2022-11-28T17:36:22.474Z,11.10
2022-11-28T17:38:50.552Z,11.00
2022-11-28T17:41:18.571Z,11.00
2022-11-28T17:43:46.608Z,10.90
2022-11-28T17:46:14.634Z,10.90
2022-11-28T17:48:42.318Z,10.90
2022-11-28T17:51:10.620Z,10.90
2022-11-28T17:53:38.395Z,10.80
2022-11-28T17:56:06.180Z,10.80
2022-11-28T17:58:33.856Z,10.80
2022-11-28T18:01:01.527Z,10.80
2022-11-28T18:03:30.054Z,10.70
2022-11-28T18:05:57.815Z,10.70
2022-11-28T18:08:25.760Z,10.70
2022-11-28T18:11:08.786Z,10.70
2022-11-28T18:13:36.718Z,10.60
2022-11-28T18:16:04.522Z,10.60
2022-11-28T18:18:32.272Z,10.60
2022-11-28T18:21:00.839Z,10.60
2022-11-28T18:23:28.462Z,10.60
2022-11-28T18:25:56.044Z,10.60
2022-11-28T18:28:23.680Z,10.60
2022-11-28T18:30:51.340Z,10.40
2022-11-28T18:33:18.938Z,10.50
2022-11-28T18:35:46.407Z,10.50
2022-11-28T18:38:13.843Z,10.50
2022-11-28T18:40:41.678Z,10.50
2022-11-28T18:43:09.179Z,10.50
2022-11-28T18:45:36.676Z,10.50
2022-11-28T18:48:04.256Z,10.50
2022-11-28T18:50:34.839Z,10.50
2022-11-28T18:53:02.396Z,10.50
2022-11-28T18:55:29.944Z,10.40
2022-11-28T18:57:58.236Z,10.50
2022-11-28T19:00:25.947Z,10.50
2022-11-28T19:02:54.882Z,10.60
2022-11-28T19:05:22.558Z,10.50
2022-11-28T19:07:50.179Z,10.60
2022-11-28T19:10:18.216Z,10.60
2022-11-28T19:12:45.606Z,10.50
2022-11-28T19:15:13.440Z,10.50
2022-11-28T19:17:41.026Z,10.60
2022-11-28T19:20:09.979Z,10.60
2022-11-28T19:22:37.442Z,10.50
2022-11-28T19:25:05.362Z,10.50
2022-11-28T19:27:32.947Z,10.50
2022-11-28T19:30:01.229Z,10.40
2022-11-28T19:32:29.212Z,10.40
2022-11-28T19:34:56.709Z,10.40
2022-11-28T19:37:24.456Z,10.50
2022-11-28T19:39:52.654Z,10.40
2022-11-28T19:42:20.109Z,10.30
2022-11-28T19:44:48.244Z,10.30
2022-11-28T19:47:15.824Z,10.20
2022-11-28T19:49:43.539Z,10.30
2022-11-28T19:52:11.311Z,10.20
2022-11-28T19:54:38.931Z,10.10
2022-11-28T19:57:10.521Z,10.10
2022-11-28T19:59:38.093Z,10.10
2022-11-28T20:02:06.480Z,10.00
2022-11-28T20:04:34.261Z,10.00
2022-11-28T20:07:04.309Z,9.90
2022-11-28T20:09:31.971Z,9.90
2022-11-28T20:11:59.579Z,9.90
2022-11-28T20:14:32.330Z,9.90
2022-11-28T20:17:01.059Z,9.80
2022-11-28T20:19:29.009Z,9.80
2022-11-28T20:21:58.678Z,9.70
2022-11-28T20:24:26.973Z,9.90
2022-11-28T20:26:54.425Z,9.70
2022-11-28T20:29:26.713Z,9.60
2022-11-28T20:31:54.771Z,9.60
2022-11-28T20:34:22.537Z,9.50
2022-11-28T20:36:52.583Z,9.50
2022-11-28T20:39:20.358Z,9.50
2022-11-28T20:41:47.889Z,9.40
2022-11-28T20:44:15.577Z,9.40
2022-11-28T20:46:46.198Z,9.40
2022-11-28T20:49:15.356Z,9.40
2022-11-28T20:51:43.146Z,9.30
2022-11-28T20:54:12.820Z,9.30
2022-11-28T20:59:27.915Z,9.20
2022-11-28T21:01:55.435Z,9.20
2022-11-28T21:04:22.942Z,9.20
2022-11-28T21:06:50.400Z,9.20
2022-11-28T21:09:20.089Z,9.20
2022-11-28T21:11:58.178Z,9.10
2022-11-28T21:14:27.180Z,9.10
2022-11-28T21:16:55.464Z,9.10
2022-11-28T21:19:23.070Z,9.10
2022-11-28T21:21:50.764Z,9.10
2022-11-28T21:24:18.396Z,9.10
2022-11-28T21:26:51.352Z,9.00
2022-11-28T21:29:22.751Z,9.00
2022-11-28T21:31:50.887Z,9.00
2022-11-28T21:34:19.812Z,9.00
2022-11-28T21:36:48.113Z,9.00
2022-11-28T21:39:18.747Z,9.00
2022-11-28T21:41:46.536Z,9.00
2022-11-28T21:44:14.171Z,9.00
2022-11-28T21:46:41.976Z,8.90
2022-11-28T21:49:09.774Z,9.00
2022-11-28T21:51:40.818Z,8.90
2022-11-28T21:54:10.658Z,8.90
2022-11-28T21:56:38.896Z,8.90
2022-11-28T21:59:06.853Z,8.90
2022-11-28T22:01:35.012Z,9.00
2022-11-28T22:04:04.415Z,8.90
2022-11-28T22:06:33.078Z,8.90
2022-11-28T22:09:08.709Z,8.90
2022-11-28T22:11:38.321Z,9.00
2022-11-28T22:14:06.080Z,8.90
2022-11-28T22:16:34.051Z,8.90
2022-11-28T22:36:38.214Z,8.90
2022-11-28T22:39:06.350Z,8.80
2022-11-28T22:41:34.486Z,8.80
2022-11-28T22:44:04.254Z,8.90
2022-11-28T22:46:32.780Z,8.90
2022-11-28T22:49:02.103Z,8.90
2022-11-28T22:51:31.215Z,8.90
2022-11-28T22:54:01.337Z,8.90
2022-11-28T22:56:31.892Z,8.90
2022-11-28T22:59:00.713Z,8.90
2022-11-28T23:01:30.976Z,8.90
2022-11-28T23:03:59.451Z,8.90
2022-11-28T23:06:30.187Z,8.90
2022-11-28T23:08:59.507Z,8.80
2022-11-28T23:11:32.871Z,8.80
2022-11-28T23:14:02.153Z,8.80
2022-11-28T23:16:38.698Z,8.80
2022-11-28T23:19:14.002Z,8.80
2022-11-28T23:21:43.708Z,8.80
2022-11-28T23:24:20.347Z,8.80
2022-11-28T23:26:50.885Z,8.80
2022-11-28T23:29:18.777Z,8.80
2022-11-28T23:31:47.456Z,8.90
2022-11-28T23:34:15.751Z,8.70
2022-11-28T23:36:47.318Z,8.70
2022-11-28T23:39:18.112Z,8.70
2022-11-28T23:41:46.899Z,8.80
2022-11-28T23:44:17.287Z,8.80
2022-11-28T23:46:45.477Z,8.80
2022-11-28T23:49:13.452Z,8.80
2022-11-28T23:51:41.192Z,8.80
2022-11-28T23:54:11.080Z,8.80
2022-11-28T23:56:40.249Z,8.70
2022-11-28T23:59:09.658Z,8.80
